Overview Statistics Trail Chart Weather Telemetry Raw packets
 

This is the latest recevied weather packets stored in our database for station/object KG4GJX. If no packets are shown the sender has not sent any weather packets the latest 10 day(s).

<< 31 32 33 34 35 36 37 >>
Time Temp. Humidity Pressure Rain* Wind** Luminosity Snow
1787958957 30.56° C 60% 1017.2 hPa 0 mm - - -
1787958294 31.11° C 57% 1017.2 hPa 0 mm - - -
1787957632 31.67° C 53% 1017.2 hPa 0 mm - - -
1787956969 32.78° C 51% 1016.9 hPa 0 mm - - -
1787956307 32.78° C 51% 1016.9 hPa 0 mm - - -
1787955644 32.78° C 51% 1017.2 hPa 0 mm - - -
1787954977 32.22° C 53% 1016.9 hPa 0 mm - - -
1787954314 32.22° C 51% 1016.9 hPa 0 mm - - -
1787953652 32.22° C 53% 1016.9 hPa 0 mm - - -
1787952989 32.78° C 51% 1016.9 hPa 0 mm - - -
1787952326 32.78° C 47% 1016.9 hPa 0 mm - - -
1787951664 32.78° C 50% 1016.9 hPa 0 mm - - -
1787951001 32.78° C 48% 1016.9 hPa 0 mm - - -
1787950339 32.78° C 50% 1016.9 hPa 0 mm - - -
1787949677 32.78° C 53% 1016.9 hPa 0 mm - - -
1787949014 32.78° C 51% 1016.9 hPa 0 mm - - -
1787948352 32.22° C 53% 1016.9 hPa 0 mm - - -
1787947690 32.22° C 52% 1016.9 hPa 0 mm - - -
1787947027 31.67° C 51% 1017.2 hPa 0 mm - - -
1787946365 31.67° C 57% 1017.2 hPa 0 mm - - -
1787945703 32.22° C 53% 1017.6 hPa 0 mm - - -
1787945040 32.22° C 55% 1017.6 hPa 0 mm - - -
1787944378 31.67° C 58% 1017.6 hPa 0 mm - - -
1787943715 32.22° C 55% 1017.9 hPa 0 mm - - -
1787943053 32.22° C 55% 1017.9 hPa 0 mm - - -

* Rain latest hour (hover to see other rain measurements)
** Current wind speed in m/s (hover to see current wind gust speed)